KHYX

Saginaw County H W Browne Airport

Saginaw, Michigan, USA
METAR KHYX 231055Z AUTO 23003KT 1SM BR VV007 09/08 A3013 RMK AO2
Observed Flight Rules
May-23 @ 10:55 UTC (19 minutes ago) Instrument Flight Rules
Wind Visibility Clouds Conditions
230° at 3 knots 1 miles
  • Vertical visibility at 700' AGL
  • Mist
Temperatures Readings
Current 9°C / 48°F
Dewpoint 8°C / 46°F
Humidity 94%
Altimeter 30.13" Hg
Pressure 1020 hPa
Elevation 183
METAR KHYX 231055Z AUTO 23003KT 1SM BR VV007 09/08 A3013 RMK AO2
Observed Flight Rules
May-23 @ 10:55 UTC
(19 minutes ago)
LIFR
Wind Visibility
230° at 3 knots 1 miles
Clouds
  • Vertical visibility at 700' AGL
Conditions
  • Mist
Temperature Dewpoint
9°C / 48°F 8°C / 46°F
Humidity Altimeter Pressure
94% 30.13" Hg 1020 hPa